Terminal Aerodrome Forecast
Issued by NWS Denver/Boulder, CO

Home | Current Version | Previous Version | Text Only | Print | Product List | Glossary On
Versions: 1 2 3 4 5 6 7 8 9 10 11 12 13 14 15 16 17 18 19 20 21 22 23 24 25 26 27 28 29 30 31 32 33 34 35
000
FTUS45 KBOU 210257 AAB
TAFDEN
TAF AMD
KDEN 210257Z 2103/2206 13016G24KT 5SM -RA BR OVC005
     FM210500 08012KT 2SM -RASN BR OVC005
     FM210700 02010KT 2SM -SN BR OVC004
      TEMPO 2107/2111 1/2SM -SN FG OVC002
     FM211400 34008KT 3SM -RASN SCT006 OVC012
     FM212100 04008KT P6SM SCT015 BKN025
     FM220200 16010KT P6SM SCT025 SCT050 BKN100=

USA.gov is the U.S. government's official web portal to all federal, state and local government web resources and services.